sensor_id;sensor_type;location;lat;lon;timestamp;P1;durP1;ratioP1;P2;durP2;ratioP2
57225;SDS011;43082;43.568;22.256;2024-01-30T00:00:41;31.70;;;22.38;;
57225;SDS011;43082;43.568;22.256;2024-01-30T00:03:06;31.00;;;22.60;;
57225;SDS011;43082;43.568;22.256;2024-01-30T00:05:32;29.67;;;22.35;;
57225;SDS011;43082;43.568;22.256;2024-01-30T00:07:57;32.20;;;23.77;;
57225;SDS011;43082;43.568;22.256;2024-01-30T00:10:22;65.05;;;46.63;;
57225;SDS011;43082;43.568;22.256;2024-01-30T00:12:48;50.95;;;37.17;;
57225;SDS011;43082;43.568;22.256;2024-01-30T00:15:13;71.93;;;52.10;;
57225;SDS011;43082;43.568;22.256;2024-01-30T00:17:40;59.78;;;41.88;;
57225;SDS011;43082;43.568;22.256;2024-01-30T00:20:05;72.53;;;50.95;;
57225;SDS011;43082;43.568;22.256;2024-01-30T00:22:32;78.25;;;54.53;;
57225;SDS011;43082;43.568;22.256;2024-01-30T00:24:57;67.30;;;48.65;;
57225;SDS011;43082;43.568;22.256;2024-01-30T00:27:23;94.95;;;65.38;;
57225;SDS011;43082;43.568;22.256;2024-01-30T00:29:48;95.57;;;66.45;;
57225;SDS011;43082;43.568;22.256;2024-01-30T00:32:14;76.90;;;54.15;;
57225;SDS011;43082;43.568;22.256;2024-01-30T00:34:39;76.47;;;53.65;;
57225;SDS011;43082;43.568;22.256;2024-01-30T00:37:06;76.43;;;51.67;;
57225;SDS011;43082;43.568;22.256;2024-01-30T00:39:32;67.63;;;48.80;;
57225;SDS011;43082;43.568;22.256;2024-01-30T00:41:57;59.60;;;43.10;;
57225;SDS011;43082;43.568;22.256;2024-01-30T00:44:23;81.57;;;60.83;;
57225;SDS011;43082;43.568;22.256;2024-01-30T00:46:48;55.70;;;41.35;;
57225;SDS011;43082;43.568;22.256;2024-01-30T00:49:14;53.70;;;37.97;;
57225;SDS011;43082;43.568;22.256;2024-01-30T00:51:39;59.13;;;41.60;;
57225;SDS011;43082;43.568;22.256;2024-01-30T00:54:05;59.17;;;42.47;;
57225;SDS011;43082;43.568;22.256;2024-01-30T00:56:31;73.07;;;49.85;;
57225;SDS011;43082;43.568;22.256;2024-01-30T00:58:57;65.28;;;46.40;;
57225;SDS011;43082;43.568;22.256;2024-01-30T01:01:22;67.30;;;46.33;;
57225;SDS011;43082;43.568;22.256;2024-01-30T01:03:47;52.80;;;38.20;;
57225;SDS011;43082;43.568;22.256;2024-01-30T01:06:13;61.42;;;42.75;;
57225;SDS011;43082;43.568;22.256;2024-01-30T01:08:39;46.58;;;35.10;;
57225;SDS011;43082;43.568;22.256;2024-01-30T01:11:04;48.20;;;34.38;;
57225;SDS011;43082;43.568;22.256;2024-01-30T01:13:30;48.88;;;34.92;;
57225;SDS011;43082;43.568;22.256;2024-01-30T01:15:55;45.67;;;33.95;;
57225;SDS011;43082;43.568;22.256;2024-01-30T01:18:21;47.00;;;33.50;;
57225;SDS011;43082;43.568;22.256;2024-01-30T01:20:46;47.95;;;33.88;;
57225;SDS011;43082;43.568;22.256;2024-01-30T01:23:12;45.10;;;33.03;;
57225;SDS011;43082;43.568;22.256;2024-01-30T01:25:37;46.67;;;33.80;;
57225;SDS011;43082;43.568;22.256;2024-01-30T01:28:03;53.05;;;37.95;;
57225;SDS011;43082;43.568;22.256;2024-01-30T01:30:28;50.80;;;36.97;;
57225;SDS011;43082;43.568;22.256;2024-01-30T01:32:55;51.53;;;37.35;;
57225;SDS011;43082;43.568;22.256;2024-01-30T01:35:24;49.08;;;35.83;;
57225;SDS011;43082;43.568;22.256;2024-01-30T01:37:53;52.63;;;37.10;;
57225;SDS011;43082;43.568;22.256;2024-01-30T01:40:24;50.10;;;35.40;;
57225;SDS011;43082;43.568;22.256;2024-01-30T01:42:50;51.53;;;35.33;;
57225;SDS011;43082;43.568;22.256;2024-01-30T01:45:19;42.33;;;28.88;;
57225;SDS011;43082;43.568;22.256;2024-01-30T01:47:47;37.17;;;25.27;;
57225;SDS011;43082;43.568;22.256;2024-01-30T01:50:13;37.00;;;25.90;;
57225;SDS011;43082;43.568;22.256;2024-01-30T01:52:43;48.55;;;33.08;;
57225;SDS011;43082;43.568;22.256;2024-01-30T01:55:09;45.25;;;30.85;;
57225;SDS011;43082;43.568;22.256;2024-01-30T01:57:35;37.72;;;27.15;;
57225;SDS011;43082;43.568;22.256;2024-01-30T02:00:01;36.95;;;25.58;;
57225;SDS011;43082;43.568;22.256;2024-01-30T02:02:28;44.35;;;30.55;;
57225;SDS011;43082;43.568;22.256;2024-01-30T02:04:56;37.15;;;25.15;;
57225;SDS011;43082;43.568;22.256;2024-01-30T02:07:23;35.80;;;24.88;;
57225;SDS011;43082;43.568;22.256;2024-01-30T02:09:48;38.38;;;26.38;;
57225;SDS011;43082;43.568;22.256;2024-01-30T02:12:14;36.50;;;26.75;;
57225;SDS011;43082;43.568;22.256;2024-01-30T02:14:46;49.10;;;32.97;;
57225;SDS011;43082;43.568;22.256;2024-01-30T02:17:12;46.17;;;33.58;;
57225;SDS011;43082;43.568;22.256;2024-01-30T02:19:38;42.83;;;31.27;;
57225;SDS011;43082;43.568;22.256;2024-01-30T02:22:04;42.97;;;29.70;;
57225;SDS011;43082;43.568;22.256;2024-01-30T02:24:30;41.45;;;29.90;;
57225;SDS011;43082;43.568;22.256;2024-01-30T02:26:56;40.45;;;29.20;;
57225;SDS011;43082;43.568;22.256;2024-01-30T02:29:21;52.30;;;36.42;;
57225;SDS011;43082;43.568;22.256;2024-01-30T02:31:47;53.38;;;35.63;;
57225;SDS011;43082;43.568;22.256;2024-01-30T02:34:12;46.17;;;32.65;;
57225;SDS011;43082;43.568;22.256;2024-01-30T02:36:38;49.58;;;34.05;;
57225;SDS011;43082;43.568;22.256;2024-01-30T02:39:04;56.20;;;34.47;;
57225;SDS011;43082;43.568;22.256;2024-01-30T02:41:30;57.05;;;37.50;;
57225;SDS011;43082;43.568;22.256;2024-01-30T02:43:55;56.13;;;37.80;;
57225;SDS011;43082;43.568;22.256;2024-01-30T02:46:21;48.03;;;32.70;;
57225;SDS011;43082;43.568;22.256;2024-01-30T02:48:47;51.63;;;33.53;;
57225;SDS011;43082;43.568;22.256;2024-01-30T02:51:12;50.92;;;33.92;;
57225;SDS011;43082;43.568;22.256;2024-01-30T02:53:37;35.47;;;26.15;;
57225;SDS011;43082;43.568;22.256;2024-01-30T02:56:03;40.78;;;28.20;;
57225;SDS011;43082;43.568;22.256;2024-01-30T02:58:29;36.83;;;24.83;;
57225;SDS011;43082;43.568;22.256;2024-01-30T03:00:54;33.17;;;22.30;;
57225;SDS011;43082;43.568;22.256;2024-01-30T03:03:19;37.97;;;25.13;;
57225;SDS011;43082;43.568;22.256;2024-01-30T03:05:45;35.60;;;23.48;;
57225;SDS011;43082;43.568;22.256;2024-01-30T03:08:10;33.70;;;21.90;;
57225;SDS011;43082;43.568;22.256;2024-01-30T03:10:36;36.30;;;23.33;;
57225;SDS011;43082;43.568;22.256;2024-01-30T03:13:01;38.30;;;28.85;;
57225;SDS011;43082;43.568;22.256;2024-01-30T03:15:26;38.22;;;27.17;;
57225;SDS011;43082;43.568;22.256;2024-01-30T03:17:53;35.47;;;24.33;;
57225;SDS011;43082;43.568;22.256;2024-01-30T03:20:19;34.15;;;25.45;;
57225;SDS011;43082;43.568;22.256;2024-01-30T03:22:44;36.63;;;26.27;;
57225;SDS011;43082;43.568;22.256;2024-01-30T03:25:10;31.75;;;22.42;;
57225;SDS011;43082;43.568;22.256;2024-01-30T03:27:35;39.85;;;29.85;;
57225;SDS011;43082;43.568;22.256;2024-01-30T03:30:01;36.97;;;27.52;;
57225;SDS011;43082;43.568;22.256;2024-01-30T03:32:26;31.52;;;22.52;;
57225;SDS011;43082;43.568;22.256;2024-01-30T03:34:52;30.42;;;21.90;;
57225;SDS011;43082;43.568;22.256;2024-01-30T03:37:18;30.45;;;21.80;;
57225;SDS011;43082;43.568;22.256;2024-01-30T03:39:44;29.95;;;21.58;;
57225;SDS011;43082;43.568;22.256;2024-01-30T03:42:09;29.50;;;21.35;;
57225;SDS011;43082;43.568;22.256;2024-01-30T03:44:35;31.38;;;22.80;;
57225;SDS011;43082;43.568;22.256;2024-01-30T03:47:00;30.42;;;21.30;;
57225;SDS011;43082;43.568;22.256;2024-01-30T03:49:25;32.65;;;21.88;;
57225;SDS011;43082;43.568;22.256;2024-01-30T03:51:51;32.72;;;23.20;;
57225;SDS011;43082;43.568;22.256;2024-01-30T03:54:16;32.63;;;23.80;;
57225;SDS011;43082;43.568;22.256;2024-01-30T03:56:42;31.70;;;23.23;;
57225;SDS011;43082;43.568;22.256;2024-01-30T03:59:07;32.15;;;23.52;;
57225;SDS011;43082;43.568;22.256;2024-01-30T04:01:33;27.63;;;21.23;;
57225;SDS011;43082;43.568;22.256;2024-01-30T04:03:58;27.00;;;20.52;;
57225;SDS011;43082;43.568;22.256;2024-01-30T04:06:23;28.42;;;20.13;;
57225;SDS011;43082;43.568;22.256;2024-01-30T04:08:49;35.97;;;24.17;;
57225;SDS011;43082;43.568;22.256;2024-01-30T04:11:14;29.90;;;21.52;;
57225;SDS011;43082;43.568;22.256;2024-01-30T04:13:40;32.25;;;21.85;;
57225;SDS011;43082;43.568;22.256;2024-01-30T04:16:07;30.63;;;21.13;;
57225;SDS011;43082;43.568;22.256;2024-01-30T04:18:33;33.58;;;23.02;;
57225;SDS011;43082;43.568;22.256;2024-01-30T04:20:59;36.88;;;25.90;;
57225;SDS011;43082;43.568;22.256;2024-01-30T04:23:24;32.15;;;21.77;;
57225;SDS011;43082;43.568;22.256;2024-01-30T04:25:50;30.13;;;21.35;;
57225;SDS011;43082;43.568;22.256;2024-01-30T04:28:15;24.25;;;17.50;;
57225;SDS011;43082;43.568;22.256;2024-01-30T04:30:41;25.20;;;17.40;;
57225;SDS011;43082;43.568;22.256;2024-01-30T04:33:06;30.13;;;19.55;;
57225;SDS011;43082;43.568;22.256;2024-01-30T04:35:32;30.17;;;20.67;;
57225;SDS011;43082;43.568;22.256;2024-01-30T04:37:57;26.85;;;18.95;;
57225;SDS011;43082;43.568;22.256;2024-01-30T04:40:23;27.13;;;17.90;;
57225;SDS011;43082;43.568;22.256;2024-01-30T04:42:48;30.50;;;21.17;;
57225;SDS011;43082;43.568;22.256;2024-01-30T04:45:14;31.45;;;20.48;;
57225;SDS011;43082;43.568;22.256;2024-01-30T04:47:39;28.75;;;19.50;;
57225;SDS011;43082;43.568;22.256;2024-01-30T04:50:08;32.88;;;23.67;;
57225;SDS011;43082;43.568;22.256;2024-01-30T04:52:34;34.10;;;22.40;;
57225;SDS011;43082;43.568;22.256;2024-01-30T04:55:00;37.55;;;25.33;;
57225;SDS011;43082;43.568;22.256;2024-01-30T04:57:25;35.75;;;24.42;;
57225;SDS011;43082;43.568;22.256;2024-01-30T04:59:50;26.17;;;19.15;;
57225;SDS011;43082;43.568;22.256;2024-01-30T05:02:16;25.15;;;18.42;;
57225;SDS011;43082;43.568;22.256;2024-01-30T05:04:41;23.38;;;17.08;;
57225;SDS011;43082;43.568;22.256;2024-01-30T05:07:07;26.52;;;20.20;;
57225;SDS011;43082;43.568;22.256;2024-01-30T05:09:32;26.88;;;19.73;;
57225;SDS011;43082;43.568;22.256;2024-01-30T05:11:57;25.00;;;18.10;;
57225;SDS011;43082;43.568;22.256;2024-01-30T05:14:23;25.77;;;19.25;;
57225;SDS011;43082;43.568;22.256;2024-01-30T05:16:49;29.90;;;21.38;;
57225;SDS011;43082;43.568;22.256;2024-01-30T05:19:14;33.03;;;23.45;;
57225;SDS011;43082;43.568;22.256;2024-01-30T05:21:40;32.85;;;22.38;;
57225;SDS011;43082;43.568;22.256;2024-01-30T05:24:06;34.85;;;24.23;;
57225;SDS011;43082;43.568;22.256;2024-01-30T05:26:32;33.83;;;22.63;;
57225;SDS011;43082;43.568;22.256;2024-01-30T05:28:57;32.40;;;22.20;;
57225;SDS011;43082;43.568;22.256;2024-01-30T05:31:23;37.53;;;25.50;;
57225;SDS011;43082;43.568;22.256;2024-01-30T05:33:48;33.40;;;23.58;;
57225;SDS011;43082;43.568;22.256;2024-01-30T05:36:14;34.35;;;25.98;;
57225;SDS011;43082;43.568;22.256;2024-01-30T05:38:39;46.08;;;32.72;;
57225;SDS011;43082;43.568;22.256;2024-01-30T05:41:05;36.60;;;26.58;;
57225;SDS011;43082;43.568;22.256;2024-01-30T05:43:30;49.80;;;38.25;;
57225;SDS011;43082;43.568;22.256;2024-01-30T05:45:56;66.15;;;50.08;;
57225;SDS011;43082;43.568;22.256;2024-01-30T05:48:21;39.28;;;26.85;;
57225;SDS011;43082;43.568;22.256;2024-01-30T05:50:47;38.38;;;28.55;;
57225;SDS011;43082;43.568;22.256;2024-01-30T05:53:12;40.55;;;28.02;;
57225;SDS011;43082;43.568;22.256;2024-01-30T05:55:38;29.77;;;20.25;;
57225;SDS011;43082;43.568;22.256;2024-01-30T05:58:03;34.60;;;25.85;;
57225;SDS011;43082;43.568;22.256;2024-01-30T06:00:29;40.85;;;28.80;;
57225;SDS011;43082;43.568;22.256;2024-01-30T06:02:54;44.22;;;33.17;;
57225;SDS011;43082;43.568;22.256;2024-01-30T06:05:20;53.65;;;36.13;;
57225;SDS011;43082;43.568;22.256;2024-01-30T06:07:45;43.05;;;31.63;;
57225;SDS011;43082;43.568;22.256;2024-01-30T06:10:11;39.55;;;29.33;;
57225;SDS011;43082;43.568;22.256;2024-01-30T06:12:36;43.17;;;33.03;;
57225;SDS011;43082;43.568;22.256;2024-01-30T06:15:02;46.10;;;32.65;;
57225;SDS011;43082;43.568;22.256;2024-01-30T06:17:28;39.72;;;27.98;;
57225;SDS011;43082;43.568;22.256;2024-01-30T06:19:53;39.08;;;26.92;;
57225;SDS011;43082;43.568;22.256;2024-01-30T06:22:19;53.22;;;38.03;;
57225;SDS011;43082;43.568;22.256;2024-01-30T06:24:45;49.72;;;34.63;;
57225;SDS011;43082;43.568;22.256;2024-01-30T06:27:12;52.63;;;36.63;;
57225;SDS011;43082;43.568;22.256;2024-01-30T06:29:38;81.05;;;52.40;;
57225;SDS011;43082;43.568;22.256;2024-01-30T06:32:04;100.88;;;63.15;;
57225;SDS011;43082;43.568;22.256;2024-01-30T06:34:29;97.13;;;65.43;;
57225;SDS011;43082;43.568;22.256;2024-01-30T06:36:55;73.35;;;49.22;;
57225;SDS011;43082;43.568;22.256;2024-01-30T06:39:20;98.00;;;66.30;;
57225;SDS011;43082;43.568;22.256;2024-01-30T06:41:46;128.77;;;88.82;;
57225;SDS011;43082;43.568;22.256;2024-01-30T06:44:12;134.32;;;91.30;;
57225;SDS011;43082;43.568;22.256;2024-01-30T06:46:38;133.73;;;91.97;;
57225;SDS011;43082;43.568;22.256;2024-01-30T06:49:03;192.02;;;135.85;;
57225;SDS011;43082;43.568;22.256;2024-01-30T06:51:29;102.90;;;69.28;;
57225;SDS011;43082;43.568;22.256;2024-01-30T06:53:54;114.90;;;86.97;;
57225;SDS011;43082;43.568;22.256;2024-01-30T06:56:20;100.78;;;75.22;;
57225;SDS011;43082;43.568;22.256;2024-01-30T06:58:49;89.07;;;65.65;;
57225;SDS011;43082;43.568;22.256;2024-01-30T07:01:15;63.78;;;47.55;;
57225;SDS011;43082;43.568;22.256;2024-01-30T07:03:41;61.40;;;43.95;;
57225;SDS011;43082;43.568;22.256;2024-01-30T07:06:07;67.25;;;50.72;;
57225;SDS011;43082;43.568;22.256;2024-01-30T07:08:32;57.25;;;42.28;;
57225;SDS011;43082;43.568;22.256;2024-01-30T07:10:57;23.73;;;17.45;;
57225;SDS011;43082;43.568;22.256;2024-01-30T07:13:23;53.47;;;41.00;;
57225;SDS011;43082;43.568;22.256;2024-01-30T07:15:48;62.83;;;44.85;;
57225;SDS011;43082;43.568;22.256;2024-01-30T07:18:14;68.28;;;41.55;;
57225;SDS011;43082;43.568;22.256;2024-01-30T07:20:39;40.38;;;29.92;;
57225;SDS011;43082;43.568;22.256;2024-01-30T07:23:14;84.72;;;45.33;;
57225;SDS011;43082;43.568;22.256;2024-01-30T07:25:41;52.35;;;36.83;;
57225;SDS011;43082;43.568;22.256;2024-01-30T07:28:07;54.97;;;39.35;;
57225;SDS011;43082;43.568;22.256;2024-01-30T07:30:37;50.92;;;39.97;;
57225;SDS011;43082;43.568;22.256;2024-01-30T07:33:03;74.15;;;54.15;;
57225;SDS011;43082;43.568;22.256;2024-01-30T07:35:28;72.97;;;55.20;;
57225;SDS011;43082;43.568;22.256;2024-01-30T07:37:54;78.50;;;52.83;;
57225;SDS011;43082;43.568;22.256;2024-01-30T07:40:19;80.25;;;56.35;;
57225;SDS011;43082;43.568;22.256;2024-01-30T07:42:45;68.32;;;51.92;;
57225;SDS011;43082;43.568;22.256;2024-01-30T07:45:10;72.75;;;52.95;;
57225;SDS011;43082;43.568;22.256;2024-01-30T07:47:36;80.63;;;60.55;;
57225;SDS011;43082;43.568;22.256;2024-01-30T07:50:01;81.05;;;60.58;;
57225;SDS011;43082;43.568;22.256;2024-01-30T07:52:26;87.70;;;59.95;;
57225;SDS011;43082;43.568;22.256;2024-01-30T07:54:52;97.25;;;72.25;;
57225;SDS011;43082;43.568;22.256;2024-01-30T07:57:17;91.63;;;70.18;;
57225;SDS011;43082;43.568;22.256;2024-01-30T07:59:43;83.25;;;64.50;;
57225;SDS011;43082;43.568;22.256;2024-01-30T08:02:09;74.97;;;57.40;;
57225;SDS011;43082;43.568;22.256;2024-01-30T08:04:35;81.40;;;58.83;;
57225;SDS011;43082;43.568;22.256;2024-01-30T08:07:01;69.60;;;54.25;;
57225;SDS011;43082;43.568;22.256;2024-01-30T08:09:26;60.28;;;45.90;;
57225;SDS011;43082;43.568;22.256;2024-01-30T08:11:52;67.03;;;50.03;;
57225;SDS011;43082;43.568;22.256;2024-01-30T08:14:17;58.50;;;46.78;;
57225;SDS011;43082;43.568;22.256;2024-01-30T08:16:43;83.63;;;58.63;;
57225;SDS011;43082;43.568;22.256;2024-01-30T08:19:08;52.33;;;41.03;;
57225;SDS011;43082;43.568;22.256;2024-01-30T08:21:34;46.97;;;38.58;;
57225;SDS011;43082;43.568;22.256;2024-01-30T08:24:04;38.05;;;31.40;;
57225;SDS011;43082;43.568;22.256;2024-01-30T08:26:31;30.90;;;24.42;;
57225;SDS011;43082;43.568;22.256;2024-01-30T08:28:57;30.65;;;24.30;;
57225;SDS011;43082;43.568;22.256;2024-01-30T08:31:23;27.48;;;21.48;;
57225;SDS011;43082;43.568;22.256;2024-01-30T08:33:48;27.23;;;21.55;;
57225;SDS011;43082;43.568;22.256;2024-01-30T08:36:14;27.20;;;21.58;;
57225;SDS011;43082;43.568;22.256;2024-01-30T08:38:40;25.60;;;20.05;;
57225;SDS011;43082;43.568;22.256;2024-01-30T08:41:05;29.27;;;18.77;;
57225;SDS011;43082;43.568;22.256;2024-01-30T08:43:32;23.00;;;17.48;;
57225;SDS011;43082;43.568;22.256;2024-01-30T08:46:01;24.90;;;19.98;;
57225;SDS011;43082;43.568;22.256;2024-01-30T08:48:26;24.45;;;19.45;;
57225;SDS011;43082;43.568;22.256;2024-01-30T08:50:52;25.88;;;19.88;;
57225;SDS011;43082;43.568;22.256;2024-01-30T08:53:18;27.65;;;19.60;;
57225;SDS011;43082;43.568;22.256;2024-01-30T08:55:43;26.58;;;20.95;;
57225;SDS011;43082;43.568;22.256;2024-01-30T08:58:09;27.65;;;19.70;;
57225;SDS011;43082;43.568;22.256;2024-01-30T09:00:35;27.98;;;23.17;;
57225;SDS011;43082;43.568;22.256;2024-01-30T09:03:00;29.77;;;21.50;;
57225;SDS011;43082;43.568;22.256;2024-01-30T09:05:26;29.45;;;23.63;;
57225;SDS011;43082;43.568;22.256;2024-01-30T09:07:51;30.20;;;23.70;;
57225;SDS011;43082;43.568;22.256;2024-01-30T09:10:16;47.83;;;34.85;;
57225;SDS011;43082;43.568;22.256;2024-01-30T09:12:42;37.10;;;31.55;;
57225;SDS011;43082;43.568;22.256;2024-01-30T09:15:07;38.55;;;30.13;;
57225;SDS011;43082;43.568;22.256;2024-01-30T09:17:33;29.40;;;23.65;;
57225;SDS011;43082;43.568;22.256;2024-01-30T09:19:59;29.73;;;23.20;;
57225;SDS011;43082;43.568;22.256;2024-01-30T09:22:24;29.23;;;21.95;;
57225;SDS011;43082;43.568;22.256;2024-01-30T09:24:50;32.25;;;24.67;;
57225;SDS011;43082;43.568;22.256;2024-01-30T09:27:15;39.60;;;30.00;;
57225;SDS011;43082;43.568;22.256;2024-01-30T09:29:41;35.58;;;28.08;;
57225;SDS011;43082;43.568;22.256;2024-01-30T09:32:07;38.70;;;29.13;;
57225;SDS011;43082;43.568;22.256;2024-01-30T09:34:34;50.53;;;38.25;;
57225;SDS011;43082;43.568;22.256;2024-01-30T09:36:59;55.22;;;41.22;;
57225;SDS011;43082;43.568;22.256;2024-01-30T09:39:25;52.92;;;40.75;;
57225;SDS011;43082;43.568;22.256;2024-01-30T09:44:44;34.95;;;27.13;;
57225;SDS011;43082;43.568;22.256;2024-01-30T09:47:12;46.17;;;39.25;;
57225;SDS011;43082;43.568;22.256;2024-01-30T09:49:38;43.13;;;34.40;;
57225;SDS011;43082;43.568;22.256;2024-01-30T09:52:05;34.75;;;27.35;;
57225;SDS011;43082;43.568;22.256;2024-01-30T09:54:31;35.28;;;25.55;;
57225;SDS011;43082;43.568;22.256;2024-01-30T09:56:57;33.95;;;27.33;;
57225;SDS011;43082;43.568;22.256;2024-01-30T09:59:23;35.55;;;29.00;;
57225;SDS011;43082;43.568;22.256;2024-01-30T10:01:49;35.72;;;28.67;;
57225;SDS011;43082;43.568;22.256;2024-01-30T10:04:15;38.45;;;30.73;;
57225;SDS011;43082;43.568;22.256;2024-01-30T10:06:40;39.97;;;32.42;;
57225;SDS011;43082;43.568;22.256;2024-01-30T10:09:07;39.30;;;30.58;;
57225;SDS011;43082;43.568;22.256;2024-01-30T10:11:33;37.92;;;29.95;;
57225;SDS011;43082;43.568;22.256;2024-01-30T10:13:59;37.88;;;31.88;;
57225;SDS011;43082;43.568;22.256;2024-01-30T10:16:25;40.50;;;33.70;;
57225;SDS011;43082;43.568;22.256;2024-01-30T10:18:50;44.45;;;36.17;;
57225;SDS011;43082;43.568;22.256;2024-01-30T10:21:16;42.30;;;34.33;;
57225;SDS011;43082;43.568;22.256;2024-01-30T10:23:43;43.42;;;35.83;;
57225;SDS011;43082;43.568;22.256;2024-01-30T10:26:09;43.33;;;33.55;;
57225;SDS011;43082;43.568;22.256;2024-01-30T10:28:35;41.17;;;32.53;;
57225;SDS011;43082;43.568;22.256;2024-01-30T10:31:00;37.72;;;30.27;;
57225;SDS011;43082;43.568;22.256;2024-01-30T10:33:29;29.77;;;24.48;;
57225;SDS011;43082;43.568;22.256;2024-01-30T10:35:59;32.47;;;26.88;;
57225;SDS011;43082;43.568;22.256;2024-01-30T10:38:32;28.25;;;22.85;;
57225;SDS011;43082;43.568;22.256;2024-01-30T10:40:59;30.92;;;24.83;;
57225;SDS011;43082;43.568;22.256;2024-01-30T10:43:47;28.48;;;23.27;;
57225;SDS011;43082;43.568;22.256;2024-01-30T10:48:43;30.27;;;23.80;;
57225;SDS011;43082;43.568;22.256;2024-01-30T10:51:15;29.10;;;20.65;;
57225;SDS011;43082;43.568;22.256;2024-01-30T10:53:41;21.08;;;17.88;;
57225;SDS011;43082;43.568;22.256;2024-01-30T10:56:09;24.73;;;19.92;;
57225;SDS011;43082;43.568;22.256;2024-01-30T10:58:36;42.25;;;34.08;;
57225;SDS011;43082;43.568;22.256;2024-01-30T11:01:01;39.92;;;33.17;;
57225;SDS011;43082;43.568;22.256;2024-01-30T11:03:27;41.00;;;33.67;;
57225;SDS011;43082;43.568;22.256;2024-01-30T11:05:53;51.25;;;40.45;;
57225;SDS011;43082;43.568;22.256;2024-01-30T11:08:24;41.33;;;31.23;;
57225;SDS011;43082;43.568;22.256;2024-01-30T11:10:54;41.75;;;33.25;;
57225;SDS011;43082;43.568;22.256;2024-01-30T11:13:20;30.90;;;26.17;;
57225;SDS011;43082;43.568;22.256;2024-01-30T11:15:47;28.90;;;22.42;;
57225;SDS011;43082;43.568;22.256;2024-01-30T11:18:22;35.63;;;29.45;;
57225;SDS011;43082;43.568;22.256;2024-01-30T11:20:48;20.42;;;15.32;;
57225;SDS011;43082;43.568;22.256;2024-01-30T11:23:14;26.50;;;21.63;;
57225;SDS011;43082;43.568;22.256;2024-01-30T11:25:39;27.58;;;22.73;;
57225;SDS011;43082;43.568;22.256;2024-01-30T11:28:04;29.80;;;23.98;;
57225;SDS011;43082;43.568;22.256;2024-01-30T11:30:31;26.63;;;20.52;;
57225;SDS011;43082;43.568;22.256;2024-01-30T11:35:33;15.95;;;11.77;;
57225;SDS011;43082;43.568;22.256;2024-01-30T11:38:09;15.43;;;11.25;;
57225;SDS011;43082;43.568;22.256;2024-01-30T11:40:38;12.85;;;8.07;;
57225;SDS011;43082;43.568;22.256;2024-01-30T11:43:04;18.90;;;10.70;;
57225;SDS011;43082;43.568;22.256;2024-01-30T11:45:31;10.43;;;7.35;;
57225;SDS011;43082;43.568;22.256;2024-01-30T11:47:57;12.95;;;8.27;;
57225;SDS011;43082;43.568;22.256;2024-01-30T11:50:25;11.95;;;7.88;;
57225;SDS011;43082;43.568;22.256;2024-01-30T11:52:50;15.57;;;9.57;;
57225;SDS011;43082;43.568;22.256;2024-01-30T11:55:16;11.52;;;7.38;;
57225;SDS011;43082;43.568;22.256;2024-01-30T11:57:42;11.05;;;7.90;;
57225;SDS011;43082;43.568;22.256;2024-01-30T12:00:16;10.88;;;7.25;;
57225;SDS011;43082;43.568;22.256;2024-01-30T12:02:43;12.00;;;8.10;;
57225;SDS011;43082;43.568;22.256;2024-01-30T12:05:09;13.02;;;9.30;;
57225;SDS011;43082;43.568;22.256;2024-01-30T12:07:35;19.92;;;8.32;;
57225;SDS011;43082;43.568;22.256;2024-01-30T12:10:01;14.07;;;7.45;;
57225;SDS011;43082;43.568;22.256;2024-01-30T12:12:27;14.25;;;8.50;;
57225;SDS011;43082;43.568;22.256;2024-01-30T12:14:53;14.73;;;11.05;;
57225;SDS011;43082;43.568;22.256;2024-01-30T12:17:28;11.00;;;6.43;;
57225;SDS011;43082;43.568;22.256;2024-01-30T12:22:46;13.77;;;7.10;;
57225;SDS011;43082;43.568;22.256;2024-01-30T12:25:20;11.07;;;6.93;;
57225;SDS011;43082;43.568;22.256;2024-01-30T12:27:46;17.65;;;8.32;;
57225;SDS011;43082;43.568;22.256;2024-01-30T12:30:15;12.25;;;7.00;;
57225;SDS011;43082;43.568;22.256;2024-01-30T12:32:41;9.38;;;6.10;;
57225;SDS011;43082;43.568;22.256;2024-01-30T12:35:11;27.08;;;21.05;;
57225;SDS011;43082;43.568;22.256;2024-01-30T12:37:38;8.98;;;5.75;;
57225;SDS011;43082;43.568;22.256;2024-01-30T12:40:10;12.40;;;5.78;;
57225;SDS011;43082;43.568;22.256;2024-01-30T12:42:36;11.38;;;6.95;;
57225;SDS011;43082;43.568;22.256;2024-01-30T12:45:02;13.57;;;7.43;;
57225;SDS011;43082;43.568;22.256;2024-01-30T12:47:29;12.70;;;7.07;;
57225;SDS011;43082;43.568;22.256;2024-01-30T12:49:54;11.68;;;6.63;;
57225;SDS011;43082;43.568;22.256;2024-01-30T12:52:20;11.18;;;6.82;;
57225;SDS011;43082;43.568;22.256;2024-01-30T12:54:46;13.18;;;6.28;;
57225;SDS011;43082;43.568;22.256;2024-01-30T12:57:15;12.80;;;6.22;;
57225;SDS011;43082;43.568;22.256;2024-01-30T12:59:41;9.98;;;6.20;;
57225;SDS011;43082;43.568;22.256;2024-01-30T13:02:07;9.90;;;5.90;;
57225;SDS011;43082;43.568;22.256;2024-01-30T13:04:33;11.98;;;5.72;;
57225;SDS011;43082;43.568;22.256;2024-01-30T13:06:58;8.93;;;5.28;;
57225;SDS011;43082;43.568;22.256;2024-01-30T13:09:25;8.25;;;4.80;;
57225;SDS011;43082;43.568;22.256;2024-01-30T13:11:51;16.52;;;5.30;;
57225;SDS011;43082;43.568;22.256;2024-01-30T13:14:17;11.15;;;4.97;;
57225;SDS011;43082;43.568;22.256;2024-01-30T13:16:42;10.70;;;5.95;;
57225;SDS011;43082;43.568;22.256;2024-01-30T13:19:08;11.15;;;4.50;;
57225;SDS011;43082;43.568;22.256;2024-01-30T13:21:33;13.02;;;7.50;;
57225;SDS011;43082;43.568;22.256;2024-01-30T13:23:59;12.00;;;4.60;;
57225;SDS011;43082;43.568;22.256;2024-01-30T13:26:24;7.60;;;4.10;;
57225;SDS011;43082;43.568;22.256;2024-01-30T13:28:50;7.25;;;3.55;;
57225;SDS011;43082;43.568;22.256;2024-01-30T13:31:15;8.25;;;4.10;;
57225;SDS011;43082;43.568;22.256;2024-01-30T13:33:41;7.80;;;4.10;;
57225;SDS011;43082;43.568;22.256;2024-01-30T13:36:11;9.55;;;4.20;;
57225;SDS011;43082;43.568;22.256;2024-01-30T13:38:37;8.20;;;3.95;;
57225;SDS011;43082;43.568;22.256;2024-01-30T13:41:03;9.32;;;3.50;;
57225;SDS011;43082;43.568;22.256;2024-01-30T13:43:28;7.47;;;3.40;;
57225;SDS011;43082;43.568;22.256;2024-01-30T13:45:54;8.52;;;4.80;;
57225;SDS011;43082;43.568;22.256;2024-01-30T13:48:20;8.43;;;4.75;;
57225;SDS011;43082;43.568;22.256;2024-01-30T13:50:45;9.50;;;5.35;;
57225;SDS011;43082;43.568;22.256;2024-01-30T13:53:11;9.02;;;5.00;;
57225;SDS011;43082;43.568;22.256;2024-01-30T13:55:37;12.98;;;4.50;;
57225;SDS011;43082;43.568;22.256;2024-01-30T13:58:03;19.25;;;4.80;;
57225;SDS011;43082;43.568;22.256;2024-01-30T14:00:28;26.65;;;5.30;;
57225;SDS011;43082;43.568;22.256;2024-01-30T14:02:54;8.80;;;5.15;;
57225;SDS011;43082;43.568;22.256;2024-01-30T14:05:20;15.18;;;5.20;;
57225;SDS011;43082;43.568;22.256;2024-01-30T14:07:46;7.97;;;4.18;;
57225;SDS011;43082;43.568;22.256;2024-01-30T14:10:12;7.22;;;3.95;;
57225;SDS011;43082;43.568;22.256;2024-01-30T14:12:37;8.45;;;4.15;;
57225;SDS011;43082;43.568;22.256;2024-01-30T14:15:03;6.82;;;3.67;;